sensor_id;sensor_type;location;lat;lon;timestamp;pressure;altitude;pressure_sealevel;temperature;humidity
47883;BME280;37739;50.350;7.578;2022-07-06T00:01:48;100489.66;;;18.88;48.76
47883;BME280;37739;50.350;7.578;2022-07-06T00:04:17;100498.84;;;18.68;49.15
47883;BME280;37739;50.350;7.578;2022-07-06T00:06:44;100501.47;;;18.69;49.07
47883;BME280;37739;50.350;7.578;2022-07-06T00:09:12;100508.38;;;18.69;49.06
47883;BME280;37739;50.350;7.578;2022-07-06T00:11:38;100498.78;;;18.64;48.81
47883;BME280;37739;50.350;7.578;2022-07-06T00:14:06;100501.78;;;18.36;49.58
47883;BME280;37739;50.350;7.578;2022-07-06T00:16:31;100499.44;;;18.51;49.16
47883;BME280;37739;50.350;7.578;2022-07-06T00:18:57;100495.16;;;18.52;48.95
47883;BME280;37739;50.350;7.578;2022-07-06T00:21:24;100497.75;;;18.52;49.13
47883;BME280;37739;50.350;7.578;2022-07-06T00:23:49;100496.19;;;18.64;48.72
47883;BME280;37739;50.350;7.578;2022-07-06T00:26:17;100490.59;;;18.38;49.42
47883;BME280;37739;50.350;7.578;2022-07-06T00:28:45;100496.63;;;18.37;49.28
47883;BME280;37739;50.350;7.578;2022-07-06T00:31:11;100497.28;;;18.24;50.05
47883;BME280;37739;50.350;7.578;2022-07-06T00:33:41;100502.34;;;18.16;50.17
47883;BME280;37739;50.350;7.578;2022-07-06T00:36:09;100506.09;;;18.32;49.79
47883;BME280;37739;50.350;7.578;2022-07-06T00:38:34;100507.25;;;18.51;48.94
47883;BME280;37739;50.350;7.578;2022-07-06T00:41:00;100507.16;;;18.45;49.40
47883;BME280;37739;50.350;7.578;2022-07-06T00:43:27;100507.25;;;18.51;49.13
47883;BME280;37739;50.350;7.578;2022-07-06T00:45:55;100508.16;;;18.03;51.20
47883;BME280;37739;50.350;7.578;2022-07-06T00:48:23;100502.03;;;17.98;51.07
47883;BME280;37739;50.350;7.578;2022-07-06T00:50:51;100504.66;;;18.01;51.32
47883;BME280;37739;50.350;7.578;2022-07-06T00:53:17;100503.66;;;17.93;51.53
47883;BME280;37739;50.350;7.578;2022-07-06T00:55:42;100494.75;;;17.81;51.75
47883;BME280;37739;50.350;7.578;2022-07-06T00:58:09;100500.81;;;17.80;51.66
47883;BME280;37739;50.350;7.578;2022-07-06T01:00:37;100504.47;;;17.89;51.39
47883;BME280;37739;50.350;7.578;2022-07-06T01:03:09;100509.28;;;17.72;52.82
47883;BME280;37739;50.350;7.578;2022-07-06T01:05:35;100510.25;;;17.77;51.84
47883;BME280;37739;50.350;7.578;2022-07-06T01:08:00;100505.84;;;17.71;52.11
47883;BME280;37739;50.350;7.578;2022-07-06T01:10:26;100506.78;;;17.75;52.01
47883;BME280;37739;50.350;7.578;2022-07-06T01:12:51;100505.69;;;17.63;52.39
47883;BME280;37739;50.350;7.578;2022-07-06T01:15:21;100510.75;;;17.59;52.94
47883;BME280;37739;50.350;7.578;2022-07-06T01:17:50;100506.84;;;17.79;51.95
47883;BME280;37739;50.350;7.578;2022-07-06T01:20:20;100513.63;;;17.71;52.95
47883;BME280;37739;50.350;7.578;2022-07-06T01:22:47;100515.94;;;17.59;52.39
47883;BME280;37739;50.350;7.578;2022-07-06T01:25:13;100514.22;;;17.58;52.84
47883;BME280;37739;50.350;7.578;2022-07-06T01:27:43;100516.22;;;17.30;53.94
47883;BME280;37739;50.350;7.578;2022-07-06T01:30:17;100510.00;;;17.22;54.09
47883;BME280;37739;50.350;7.578;2022-07-06T01:32:43;100513.25;;;17.12;54.09
47883;BME280;37739;50.350;7.578;2022-07-06T01:35:12;100507.00;;;17.02;54.89
47883;BME280;37739;50.350;7.578;2022-07-06T01:37:37;100502.19;;;16.81;55.43
47883;BME280;37739;50.350;7.578;2022-07-06T01:40:05;100508.13;;;16.77;55.28
47883;BME280;37739;50.350;7.578;2022-07-06T01:42:30;100506.69;;;16.88;54.61
47883;BME280;37739;50.350;7.578;2022-07-06T01:44:56;100491.59;;;16.72;55.46
47883;BME280;37739;50.350;7.578;2022-07-06T01:47:24;100494.09;;;16.67;55.78
47883;BME280;37739;50.350;7.578;2022-07-06T01:49:49;100508.91;;;16.73;54.88
47883;BME280;37739;50.350;7.578;2022-07-06T01:52:17;100508.06;;;16.74;55.52
47883;BME280;37739;50.350;7.578;2022-07-06T01:54:45;100503.47;;;16.62;55.26
47883;BME280;37739;50.350;7.578;2022-07-06T01:57:13;100501.91;;;16.70;54.90
47883;BME280;37739;50.350;7.578;2022-07-06T01:59:38;100508.56;;;16.95;53.84
47883;BME280;37739;50.350;7.578;2022-07-06T02:02:08;100512.97;;;16.99;54.29
47883;BME280;37739;50.350;7.578;2022-07-06T02:04:33;100517.41;;;17.05;54.02
47883;BME280;37739;50.350;7.578;2022-07-06T02:07:01;100514.09;;;16.74;54.76
47883;BME280;37739;50.350;7.578;2022-07-06T02:09:29;100515.69;;;16.67;55.59
47883;BME280;37739;50.350;7.578;2022-07-06T02:11:57;100516.03;;;16.46;55.54
47883;BME280;37739;50.350;7.578;2022-07-06T02:14:22;100510.59;;;16.36;56.37
47883;BME280;37739;50.350;7.578;2022-07-06T02:16:47;100516.19;;;16.18;56.50
47883;BME280;37739;50.350;7.578;2022-07-06T02:19:13;100513.34;;;16.08;56.57
47883;BME280;37739;50.350;7.578;2022-07-06T02:21:38;100516.09;;;16.13;56.96
47883;BME280;37739;50.350;7.578;2022-07-06T02:24:06;100517.50;;;16.02;57.36
47883;BME280;37739;50.350;7.578;2022-07-06T02:26:31;100505.41;;;16.01;57.14
47883;BME280;37739;50.350;7.578;2022-07-06T02:28:57;100511.06;;;16.19;56.41
47883;BME280;37739;50.350;7.578;2022-07-06T02:31:22;100514.56;;;16.21;56.09
47883;BME280;37739;50.350;7.578;2022-07-06T02:33:47;100511.47;;;16.01;57.29
47883;BME280;37739;50.350;7.578;2022-07-06T02:36:13;100512.13;;;15.94;56.67
47883;BME280;37739;50.350;7.578;2022-07-06T02:38:39;100519.44;;;16.10;56.74
47883;BME280;37739;50.350;7.578;2022-07-06T02:41:04;100519.13;;;15.98;56.78
47883;BME280;37739;50.350;7.578;2022-07-06T02:43:29;100520.88;;;15.99;56.75
47883;BME280;37739;50.350;7.578;2022-07-06T02:45:55;100519.94;;;15.96;56.79
47883;BME280;37739;50.350;7.578;2022-07-06T02:48:20;100522.88;;;15.76;57.29
47883;BME280;37739;50.350;7.578;2022-07-06T02:50:46;100528.56;;;15.66;57.15
47883;BME280;37739;50.350;7.578;2022-07-06T02:53:12;100527.09;;;15.74;57.29
47883;BME280;37739;50.350;7.578;2022-07-06T02:55:37;100517.00;;;15.83;56.68
47883;BME280;37739;50.350;7.578;2022-07-06T02:58:03;100523.09;;;15.85;56.70
47883;BME280;37739;50.350;7.578;2022-07-06T03:00:28;100521.97;;;15.76;56.72
47883;BME280;37739;50.350;7.578;2022-07-06T03:02:53;100524.00;;;15.56;57.20
47883;BME280;37739;50.350;7.578;2022-07-06T03:05:19;100514.59;;;15.59;57.28
47883;BME280;37739;50.350;7.578;2022-07-06T03:07:44;100524.00;;;15.87;56.72
47883;BME280;37739;50.350;7.578;2022-07-06T03:10:12;100518.31;;;15.69;56.50
47883;BME280;37739;50.350;7.578;2022-07-06T03:12:42;100515.69;;;15.98;55.95
47883;BME280;37739;50.350;7.578;2022-07-06T03:15:10;100525.13;;;15.96;55.68
47883;BME280;37739;50.350;7.578;2022-07-06T03:17:36;100530.41;;;16.00;55.49
47883;BME280;37739;50.350;7.578;2022-07-06T03:20:03;100531.03;;;15.92;55.49
47883;BME280;37739;50.350;7.578;2022-07-06T03:22:31;100531.81;;;15.89;55.45
47883;BME280;37739;50.350;7.578;2022-07-06T03:24:59;100532.28;;;15.74;55.93
47883;BME280;37739;50.350;7.578;2022-07-06T03:27:24;100537.81;;;15.86;55.59
47883;BME280;37739;50.350;7.578;2022-07-06T03:29:49;100535.69;;;16.05;55.07
47883;BME280;37739;50.350;7.578;2022-07-06T03:32:15;100547.50;;;15.94;55.47
47883;BME280;37739;50.350;7.578;2022-07-06T03:34:40;100544.94;;;15.65;55.95
47883;BME280;37739;50.350;7.578;2022-07-06T03:37:08;100551.16;;;15.71;56.05
47883;BME280;37739;50.350;7.578;2022-07-06T03:39:33;100547.28;;;15.86;55.51
47883;BME280;37739;50.350;7.578;2022-07-06T03:42:03;100553.31;;;15.86;55.40
47883;BME280;37739;50.350;7.578;2022-07-06T03:44:28;100554.34;;;15.93;55.45
47883;BME280;37739;50.350;7.578;2022-07-06T03:46:56;100553.31;;;15.86;55.00
47883;BME280;37739;50.350;7.578;2022-07-06T03:49:22;100564.16;;;15.44;56.13
47883;BME280;37739;50.350;7.578;2022-07-06T03:51:47;100564.63;;;15.60;55.79
47883;BME280;37739;50.350;7.578;2022-07-06T03:54:12;100560.63;;;15.71;55.54
47883;BME280;37739;50.350;7.578;2022-07-06T03:56:37;100561.03;;;15.85;54.89
47883;BME280;37739;50.350;7.578;2022-07-06T03:59:05;100564.66;;;15.92;54.53
47883;BME280;37739;50.350;7.578;2022-07-06T04:01:31;100569.13;;;15.96;54.42
47883;BME280;37739;50.350;7.578;2022-07-06T04:03:59;100570.78;;;15.94;54.38
47883;BME280;37739;50.350;7.578;2022-07-06T04:06:29;100567.28;;;15.93;54.33
47883;BME280;37739;50.350;7.578;2022-07-06T04:08:55;100580.22;;;15.93;54.33
47883;BME280;37739;50.350;7.578;2022-07-06T04:11:23;100570.78;;;15.94;54.47
47883;BME280;37739;50.350;7.578;2022-07-06T04:13:48;100581.44;;;15.74;54.90
47883;BME280;37739;50.350;7.578;2022-07-06T04:16:16;100581.91;;;15.61;55.09
47883;BME280;37739;50.350;7.578;2022-07-06T04:18:43;100588.47;;;15.51;55.37
47883;BME280;37739;50.350;7.578;2022-07-06T04:21:08;100592.19;;;15.30;56.59
47883;BME280;37739;50.350;7.578;2022-07-06T04:23:41;100588.94;;;15.36;55.79
47883;BME280;37739;50.350;7.578;2022-07-06T04:26:06;100590.19;;;15.22;56.67
47883;BME280;37739;50.350;7.578;2022-07-06T04:28:31;100593.00;;;15.01;57.32
47883;BME280;37739;50.350;7.578;2022-07-06T04:30:59;100596.25;;;14.95;57.69
47883;BME280;37739;50.350;7.578;2022-07-06T04:33:27;100596.19;;;14.92;57.88
47883;BME280;37739;50.350;7.578;2022-07-06T04:35:52;100595.97;;;15.13;57.10
47883;BME280;37739;50.350;7.578;2022-07-06T04:38:18;100598.88;;;14.69;58.72
47883;BME280;37739;50.350;7.578;2022-07-06T04:40:43;100601.19;;;14.87;58.05
47883;BME280;37739;50.350;7.578;2022-07-06T04:43:11;100604.19;;;15.00;57.47
47883;BME280;37739;50.350;7.578;2022-07-06T04:45:37;100596.91;;;14.88;57.94
47883;BME280;37739;50.350;7.578;2022-07-06T04:48:02;100598.66;;;14.89;57.96
47883;BME280;37739;50.350;7.578;2022-07-06T04:50:30;100598.44;;;15.10;57.36
47883;BME280;37739;50.350;7.578;2022-07-06T04:52:56;100597.47;;;15.06;57.58
47883;BME280;37739;50.350;7.578;2022-07-06T04:55:22;100601.03;;;15.10;57.59
47883;BME280;37739;50.350;7.578;2022-07-06T04:57:47;100597.22;;;14.99;57.81
47883;BME280;37739;50.350;7.578;2022-07-06T05:00:13;100600.78;;;15.02;57.67
47883;BME280;37739;50.350;7.578;2022-07-06T05:02:38;100605.03;;;15.00;58.30
47883;BME280;37739;50.350;7.578;2022-07-06T05:05:04;100602.41;;;14.99;57.82
47883;BME280;37739;50.350;7.578;2022-07-06T05:07:32;100597.78;;;15.16;57.23
47883;BME280;37739;50.350;7.578;2022-07-06T05:10:01;100607.94;;;15.38;56.73
47883;BME280;37739;50.350;7.578;2022-07-06T05:12:26;100608.47;;;15.26;57.03
47883;BME280;37739;50.350;7.578;2022-07-06T05:14:54;100605.66;;;15.49;56.64
47883;BME280;37739;50.350;7.578;2022-07-06T05:17:19;100616.00;;;15.49;56.89
47883;BME280;37739;50.350;7.578;2022-07-06T05:19:44;100620.31;;;15.48;57.35
47883;BME280;37739;50.350;7.578;2022-07-06T05:22:12;100624.28;;;15.37;57.47
47883;BME280;37739;50.350;7.578;2022-07-06T05:24:39;100622.44;;;15.62;56.71
47883;BME280;37739;50.350;7.578;2022-07-06T05:27:07;100627.44;;;15.56;57.16
47883;BME280;37739;50.350;7.578;2022-07-06T05:29:37;100629.50;;;15.39;57.44
47883;BME280;37739;50.350;7.578;2022-07-06T05:32:05;100636.13;;;15.58;56.97
47883;BME280;37739;50.350;7.578;2022-07-06T05:34:33;100636.81;;;15.52;57.02
47883;BME280;37739;50.350;7.578;2022-07-06T05:37:01;100629.28;;;15.88;56.45
47883;BME280;37739;50.350;7.578;2022-07-06T05:39:28;100633.16;;;16.04;56.08
47883;BME280;37739;50.350;7.578;2022-07-06T05:41:54;100631.78;;;15.85;56.58
47883;BME280;37739;50.350;7.578;2022-07-06T05:44:22;100643.41;;;16.00;56.45
47883;BME280;37739;50.350;7.578;2022-07-06T05:46:49;100629.69;;;16.34;55.46
47883;BME280;37739;50.350;7.578;2022-07-06T05:49:15;100626.00;;;16.26;55.69
47883;BME280;37739;50.350;7.578;2022-07-06T05:52:01;100639.50;;;16.46;55.10
47883;BME280;37739;50.350;7.578;2022-07-06T05:54:27;100630.63;;;16.38;55.41
47883;BME280;37739;50.350;7.578;2022-07-06T05:56:54;100631.81;;;16.51;54.96
47883;BME280;37739;50.350;7.578;2022-07-06T05:59:20;100631.06;;;16.55;54.85
47883;BME280;37739;50.350;7.578;2022-07-06T06:01:50;100639.75;;;16.23;55.37
47883;BME280;37739;50.350;7.578;2022-07-06T06:04:15;100637.25;;;15.96;56.48
47883;BME280;37739;50.350;7.578;2022-07-06T06:06:41;100637.34;;;16.31;55.41
47883;BME280;37739;50.350;7.578;2022-07-06T06:09:08;100637.81;;;16.48;54.98
47883;BME280;37739;50.350;7.578;2022-07-06T06:11:34;100636.53;;;16.32;55.35
47883;BME280;37739;50.350;7.578;2022-07-06T06:14:04;100626.03;;;16.27;55.29
47883;BME280;37739;50.350;7.578;2022-07-06T06:16:29;100621.72;;;16.28;55.91
47883;BME280;37739;50.350;7.578;2022-07-06T06:18:55;100627.50;;;16.51;54.91
47883;BME280;37739;50.350;7.578;2022-07-06T06:21:20;100623.44;;;16.61;54.73
47883;BME280;37739;50.350;7.578;2022-07-06T06:23:45;100631.56;;;16.73;54.31
47883;BME280;37739;50.350;7.578;2022-07-06T06:26:13;100624.31;;;16.28;55.71
47883;BME280;37739;50.350;7.578;2022-07-06T06:28:38;100630.84;;;16.14;56.34
47883;BME280;37739;50.350;7.578;2022-07-06T06:31:06;100637.47;;;16.04;56.82
47883;BME280;37739;50.350;7.578;2022-07-06T06:33:31;100638.50;;;16.09;56.60
47883;BME280;37739;50.350;7.578;2022-07-06T06:36:01;100645.25;;;16.04;56.67
47883;BME280;37739;50.350;7.578;2022-07-06T06:38:30;100641.31;;;16.17;56.42
47883;BME280;37739;50.350;7.578;2022-07-06T06:40:58;100642.00;;;16.43;55.45
47883;BME280;37739;50.350;7.578;2022-07-06T06:43:23;100638.28;;;16.66;54.75
47883;BME280;37739;50.350;7.578;2022-07-06T06:45:51;100639.59;;;16.51;55.50
47883;BME280;37739;50.350;7.578;2022-07-06T06:48:16;100637.34;;;16.63;54.74
47883;BME280;37739;50.350;7.578;2022-07-06T06:50:45;100648.47;;;16.60;55.67
47883;BME280;37739;50.350;7.578;2022-07-06T06:53:13;100650.75;;;16.81;54.82
47883;BME280;37739;50.350;7.578;2022-07-06T06:55:39;100650.97;;;16.89;54.52
47883;BME280;37739;50.350;7.578;2022-07-06T06:58:04;100651.50;;;17.11;54.31
47883;BME280;37739;50.350;7.578;2022-07-06T07:00:29;100653.50;;;16.86;54.56
47883;BME280;37739;50.350;7.578;2022-07-06T07:03:00;100650.69;;;16.80;54.91
47883;BME280;37739;50.350;7.578;2022-07-06T07:05:25;100641.91;;;16.73;54.95
47883;BME280;37739;50.350;7.578;2022-07-06T07:07:51;100655.53;;;16.99;54.35
47883;BME280;37739;50.350;7.578;2022-07-06T07:10:19;100659.16;;;17.42;53.94
47883;BME280;37739;50.350;7.578;2022-07-06T07:12:46;100661.56;;;17.35;53.11
47883;BME280;37739;50.350;7.578;2022-07-06T07:15:12;100665.72;;;17.28;53.14
47883;BME280;37739;50.350;7.578;2022-07-06T07:17:39;100667.22;;;17.18;53.64
47883;BME280;37739;50.350;7.578;2022-07-06T07:20:09;100661.50;;;16.95;53.79
47883;BME280;37739;50.350;7.578;2022-07-06T07:22:35;100665.44;;;16.81;54.39
47883;BME280;37739;50.350;7.578;2022-07-06T07:25:03;100666.22;;;17.12;53.62
47883;BME280;37739;50.350;7.578;2022-07-06T07:27:29;100663.00;;;17.22;53.47
47883;BME280;37739;50.350;7.578;2022-07-06T07:29:54;100661.66;;;17.39;52.74
47883;BME280;37739;50.350;7.578;2022-07-06T07:32:19;100662.19;;;17.23;52.54
47883;BME280;37739;50.350;7.578;2022-07-06T07:34:48;100665.00;;;17.32;52.64
47883;BME280;37739;50.350;7.578;2022-07-06T07:37:15;100656.03;;;17.57;52.21
47883;BME280;37739;50.350;7.578;2022-07-06T07:39:41;100662.63;;;17.82;51.73
47883;BME280;37739;50.350;7.578;2022-07-06T07:42:09;100662.06;;;17.94;50.66
47883;BME280;37739;50.350;7.578;2022-07-06T07:44:35;100663.19;;;17.67;51.61
47883;BME280;37739;50.350;7.578;2022-07-06T07:47:00;100673.50;;;17.66;52.02
47883;BME280;37739;50.350;7.578;2022-07-06T07:49:28;100664.00;;;17.66;51.58
47883;BME280;37739;50.350;7.578;2022-07-06T07:51:53;100667.13;;;17.50;51.96
47883;BME280;37739;50.350;7.578;2022-07-06T07:54:18;100668.31;;;17.26;52.40
47883;BME280;37739;50.350;7.578;2022-07-06T07:56:44;100662.22;;;17.26;52.67
47883;BME280;37739;50.350;7.578;2022-07-06T07:59:12;100665.16;;;17.79;51.16
47883;BME280;37739;50.350;7.578;2022-07-06T08:01:39;100659.34;;;18.32;50.13
47883;BME280;37739;50.350;7.578;2022-07-06T08:04:05;100650.47;;;18.21;49.97
47883;BME280;37739;50.350;7.578;2022-07-06T08:06:31;100659.16;;;17.82;50.72
47883;BME280;37739;50.350;7.578;2022-07-06T08:08:59;100666.31;;;17.53;51.08
47883;BME280;37739;50.350;7.578;2022-07-06T08:11:24;100665.53;;;17.57;51.15
47883;BME280;37739;50.350;7.578;2022-07-06T08:13:50;100655.41;;;17.67;50.86
47883;BME280;37739;50.350;7.578;2022-07-06T08:16:15;100655.63;;;18.19;49.87
47883;BME280;37739;50.350;7.578;2022-07-06T08:18:40;100660.03;;;18.23;49.45
47883;BME280;37739;50.350;7.578;2022-07-06T08:21:06;100660.44;;;18.01;49.10
47883;BME280;37739;50.350;7.578;2022-07-06T08:23:31;100652.41;;;17.89;49.71
47883;BME280;37739;50.350;7.578;2022-07-06T08:26:00;100664.34;;;17.82;50.29
47883;BME280;37739;50.350;7.578;2022-07-06T08:28:28;100658.72;;;17.62;49.65
47883;BME280;37739;50.350;7.578;2022-07-06T08:30:53;100661.56;;;17.35;50.65
47883;BME280;37739;50.350;7.578;2022-07-06T08:33:24;100657.47;;;17.44;50.81
47883;BME280;37739;50.350;7.578;2022-07-06T08:35:54;100664.91;;;17.69;50.59
47883;BME280;37739;50.350;7.578;2022-07-06T08:38:19;100656.59;;;18.26;48.96
47883;BME280;37739;50.350;7.578;2022-07-06T08:40:48;100650.66;;;18.32;49.12
47883;BME280;37739;50.350;7.578;2022-07-06T08:43:20;100647.66;;;18.56;48.51
47883;BME280;37739;50.350;7.578;2022-07-06T08:45:48;100652.13;;;19.13;47.46
47883;BME280;37739;50.350;7.578;2022-07-06T08:48:17;100651.84;;;18.96;47.64
47883;BME280;37739;50.350;7.578;2022-07-06T08:50:43;100647.13;;;18.75;48.28
47883;BME280;37739;50.350;7.578;2022-07-06T08:53:11;100657.63;;;18.33;47.63
47883;BME280;37739;50.350;7.578;2022-07-06T08:55:41;100651.94;;;18.08;48.10
47883;BME280;37739;50.350;7.578;2022-07-06T08:58:07;100652.31;;;18.27;47.96
47883;BME280;37739;50.350;7.578;2022-07-06T09:00:35;100652.19;;;18.22;48.41
47883;BME280;37739;50.350;7.578;2022-07-06T09:03:01;100659.38;;;18.35;48.20
47883;BME280;37739;50.350;7.578;2022-07-06T09:05:31;100650.81;;;18.39;48.30
47883;BME280;37739;50.350;7.578;2022-07-06T09:08:00;100661.75;;;18.23;48.76
47883;BME280;37739;50.350;7.578;2022-07-06T09:10:26;100652.59;;;18.43;48.50
47883;BME280;37739;50.350;7.578;2022-07-06T09:13:01;100651.03;;;18.53;48.87
47883;BME280;37739;50.350;7.578;2022-07-06T09:15:28;100643.81;;;18.82;47.91
47883;BME280;37739;50.350;7.578;2022-07-06T09:17:58;100655.50;;;19.08;47.22
47883;BME280;37739;50.350;7.578;2022-07-06T09:20:24;100643.13;;;18.94;46.53
47883;BME280;37739;50.350;7.578;2022-07-06T09:22:49;100646.69;;;19.01;45.59
47883;BME280;37739;50.350;7.578;2022-07-06T09:25:15;100640.44;;;18.88;46.47
47883;BME280;37739;50.350;7.578;2022-07-06T09:27:47;100630.16;;;18.96;45.99
47883;BME280;37739;50.350;7.578;2022-07-06T09:30:15;100636.72;;;19.27;45.99
47883;BME280;37739;50.350;7.578;2022-07-06T09:32:45;100635.50;;;19.63;43.51
47883;BME280;37739;50.350;7.578;2022-07-06T09:35:36;100638.47;;;19.91;41.75
47883;BME280;37739;50.350;7.578;2022-07-06T09:40:32;100637.56;;;19.87;42.28
47883;BME280;37739;50.350;7.578;2022-07-06T09:43:27;100647.97;;;19.87;42.72
47883;BME280;37739;50.350;7.578;2022-07-06T09:45:56;100656.53;;;19.80;43.28
47883;BME280;37739;50.350;7.578;2022-07-06T09:48:28;100658.88;;;19.61;43.37
47883;BME280;37739;50.350;7.578;2022-07-06T09:50:54;100653.75;;;19.68;43.41
47883;BME280;37739;50.350;7.578;2022-07-06T09:53:21;100653.91;;;19.77;42.31
47883;BME280;37739;50.350;7.578;2022-07-06T09:55:50;100647.97;;;19.87;42.08
47883;BME280;37739;50.350;7.578;2022-07-06T09:58:21;100649.81;;;19.97;42.14
47883;BME280;37739;50.350;7.578;2022-07-06T10:00:50;100649.81;;;19.94;41.88
47883;BME280;37739;50.350;7.578;2022-07-06T10:03:19;100646.22;;;19.88;41.57
47883;BME280;37739;50.350;7.578;2022-07-06T10:05:49;100650.72;;;19.98;41.62
47883;BME280;37739;50.350;7.578;2022-07-06T10:08:16;100645.06;;;20.34;39.38
47883;BME280;37739;50.350;7.578;2022-07-06T10:10:44;100641.28;;;20.96;38.82
47883;BME280;37739;50.350;7.578;2022-07-06T10:13:12;100638.03;;;21.25;38.22
47883;BME280;37739;50.350;7.578;2022-07-06T10:15:40;100636.09;;;20.96;37.90
47883;BME280;37739;50.350;7.578;2022-07-06T10:18:08;100642.19;;;21.00;37.67
47883;BME280;37739;50.350;7.578;2022-07-06T10:20:38;100643.81;;;20.87;38.50
47883;BME280;37739;50.350;7.578;2022-07-06T10:23:08;100640.41;;;20.93;38.58
47883;BME280;37739;50.350;7.578;2022-07-06T10:25:34;100642.22;;;21.05;39.02
47883;BME280;37739;50.350;7.578;2022-07-06T10:28:00;100636.88;;;20.86;39.11
47883;BME280;37739;50.350;7.578;2022-07-06T10:30:28;100636.81;;;20.80;38.99
47883;BME280;37739;50.350;7.578;2022-07-06T10:32:56;100634.78;;;20.50;38.69
47883;BME280;37739;50.350;7.578;2022-07-06T10:35:22;100635.50;;;20.36;40.04
47883;BME280;37739;50.350;7.578;2022-07-06T10:38:09;100644.66;;;20.82;39.83
47883;BME280;37739;50.350;7.578;2022-07-06T10:40:37;100638.72;;;21.03;39.32
47883;BME280;37739;50.350;7.578;2022-07-06T10:43:31;100642.78;;;21.97;37.63
47883;BME280;37739;50.350;7.578;2022-07-06T10:45:56;100646.09;;;21.58;38.46
47883;BME280;37739;50.350;7.578;2022-07-06T10:48:24;100643.19;;;21.17;38.57
47883;BME280;37739;50.350;7.578;2022-07-06T10:50:56;100641.41;;;21.12;38.70
47883;BME280;37739;50.350;7.578;2022-07-06T10:53:36;100641.41;;;21.12;39.26
47883;BME280;37739;50.350;7.578;2022-07-06T10:56:08;100641.31;;;20.99;39.76
47883;BME280;37739;50.350;7.578;2022-07-06T10:58:35;100647.31;;;20.89;40.20
47883;BME280;37739;50.350;7.578;2022-07-06T11:01:01;100653.00;;;20.51;39.43
47883;BME280;37739;50.350;7.578;2022-07-06T11:06:10;100646.25;;;20.66;39.98
47883;BME280;37739;50.350;7.578;2022-07-06T11:09:01;100654.81;;;20.55;40.04
47883;BME280;37739;50.350;7.578;2022-07-06T11:13:58;100650.59;;;20.67;40.71
47883;BME280;37739;50.350;7.578;2022-07-06T11:16:25;100643.63;;;20.64;40.94
47883;BME280;37739;50.350;7.578;2022-07-06T11:19:03;100652.22;;;20.58;40.59
47883;BME280;37739;50.350;7.578;2022-07-06T11:24:16;100649.28;;;20.26;41.23
47883;BME280;37739;50.350;7.578;2022-07-06T11:26:47;100646.22;;;20.63;40.68
47883;BME280;37739;50.350;7.578;2022-07-06T11:29:13;100636.53;;;21.69;39.70
47883;BME280;37739;50.350;7.578;2022-07-06T11:31:44;100629.84;;;22.55;38.08
47883;BME280;37739;50.350;7.578;2022-07-06T11:34:11;100630.78;;;22.96;36.84
47883;BME280;37739;50.350;7.578;2022-07-06T11:36:39;100637.47;;;21.80;35.65
47883;BME280;37739;50.350;7.578;2022-07-06T11:39:10;100639.19;;;21.76;35.69
47883;BME280;37739;50.350;7.578;2022-07-06T11:41:37;100642.84;;;22.14;36.08
47883;BME280;37739;50.350;7.578;2022-07-06T11:44:04;100635.03;;;22.23;35.49
47883;BME280;37739;50.350;7.578;2022-07-06T11:46:32;100638.50;;;22.24;35.24
47883;BME280;37739;50.350;7.578;2022-07-06T11:49:03;100623.75;;;22.41;35.33
47883;BME280;37739;50.350;7.578;2022-07-06T11:51:30;100632.47;;;22.35;35.78
47883;BME280;37739;50.350;7.578;2022-07-06T11:53:59;100635.84;;;22.08;36.88
47883;BME280;37739;50.350;7.578;2022-07-06T11:56:28;100624.66;;;22.69;35.66
47883;BME280;37739;50.350;7.578;2022-07-06T11:58:57;100615.88;;;23.52;34.07
47883;BME280;37739;50.350;7.578;2022-07-06T12:01:24;100611.38;;;23.91;33.51
47883;BME280;37739;50.350;7.578;2022-07-06T12:03:51;100611.00;;;24.49;32.36
47883;BME280;37739;50.350;7.578;2022-07-06T12:06:20;100617.28;;;24.25;32.33
47883;BME280;37739;50.350;7.578;2022-07-06T12:08:53;100622.06;;;23.03;33.20
47883;BME280;37739;50.350;7.578;2022-07-06T12:11:28;100620.25;;;22.44;34.21
47883;BME280;37739;50.350;7.578;2022-07-06T12:14:11;100620.19;;;22.18;34.35
47883;BME280;37739;50.350;7.578;2022-07-06T12:16:40;100619.31;;;22.15;34.92
47883;BME280;37739;50.350;7.578;2022-07-06T12:19:06;100610.69;;;22.47;33.80
47883;BME280;37739;50.350;7.578;2022-07-06T12:21:35;100614.19;;;22.72;33.47
47883;BME280;37739;50.350;7.578;2022-07-06T12:24:06;100614.94;;;23.65;32.91
47883;BME280;37739;50.350;7.578;2022-07-06T12:26:39;100614.16;;;23.39;32.42
47883;BME280;37739;50.350;7.578;2022-07-06T12:29:05;100606.34;;;22.89;33.28
47883;BME280;37739;50.350;7.578;2022-07-06T12:34:05;100610.72;;;23.21;33.55
47883;BME280;37739;50.350;7.578;2022-07-06T12:36:31;100610.72;;;23.09;33.12
47883;BME280;37739;50.350;7.578;2022-07-06T12:39:10;100601.97;;;23.15;32.70
47883;BME280;37739;50.350;7.578;2022-07-06T12:44:20;100594.88;;;23.58;31.65
47883;BME280;37739;50.350;7.578;2022-07-06T12:46:50;100601.97;;;23.05;32.92
47883;BME280;37739;50.350;7.578;2022-07-06T12:49:20;100589.78;;;22.63;33.54
47883;BME280;37739;50.350;7.578;2022-07-06T12:57:10;100586.94;;;25.05;30.87
47883;BME280;37739;50.350;7.578;2022-07-06T13:02:30;100599.19;;;25.06;30.35
47883;BME280;37739;50.350;7.578;2022-07-06T13:04:59;100602.53;;;25.22;30.27
47883;BME280;37739;50.350;7.578;2022-07-06T13:07:26;100598.09;;;26.03;29.90
47883;BME280;37739;50.350;7.578;2022-07-06T13:09:53;100600.84;;;25.92;29.70
47883;BME280;37739;50.350;7.578;2022-07-06T13:12:19;100590.31;;;25.94;30.33
47883;BME280;37739;50.350;7.578;2022-07-06T13:14:48;100598.84;;;25.41;30.60
47883;BME280;37739;50.350;7.578;2022-07-06T13:17:16;100593.38;;;24.70;31.52